Time;durP1;ratioP1;P1;durP2;ratioP2;P2;SDS_P1;SDS_P2;PMS_P1;PMS_P2;Temp;Humidity;BMP_temperature;BMP_pressure;BME280_temperature;BME280_humidity;BME280_pressure;Samples;Min_cycle;Max_cycle;Signal;HPM_P1;HPM_P2
2023/08/20 00:02:01;;;;;;;10.50;3.40;;;;;;;;;;5041407;28;20098;-69
2023/08/20 00:04:28;;;;;;;6.55;3.45;;;;;;;;;;5047857;28;20032;-69
2023/08/20 00:06:53;;;;;;;9.43;4.15;;;;;;;;;;5050093;28;20035;-69
2023/08/20 00:09:19;;;;;;;6.03;3.78;;;;;;;;;;5057737;28;20029;-69
2023/08/20 00:11:44;;;;;;;7.63;3.58;;;;;;;;;;5053629;28;20036;-70
2023/08/20 00:14:16;;;;;;;7.85;3.05;;;;;;;;;;5047377;28;20025;-70
2023/08/20 00:16:42;;;;;;;11.18;3.67;;;;;;;;;;5047961;28;20040;-70
2023/08/20 00:19:08;;;;;;;10.63;3.47;;;;;;;;;;5045411;28;20413;-69
2023/08/20 00:21:33;;;;;;;6.72;3.25;;;;;;;;;;5047159;28;20467;-70
2023/08/20 00:23:59;;;;;;;6.07;3.15;;;;;;;;;;5047129;28;20041;-70
2023/08/20 00:26:25;;;;;;;6.40;2.80;;;;;;;;;;5047006;28;20043;-70
2023/08/20 00:28:50;;;;;;;13.05;3.13;;;;;;;;;;5047580;28;20575;-70
2023/08/20 00:31:15;;;;;;;8.90;2.92;;;;;;;;;;5030037;28;20063;-70
2023/08/20 00:33:41;;;;;;;7.70;3.05;;;;;;;;;;5026069;28;20034;-70
2023/08/20 00:36:06;;;;;;;5.63;2.80;;;;;;;;;;5025016;28;20124;-69
2023/08/20 00:38:31;;;;;;;5.50;3.00;;;;;;;;;;5024573;28;20694;-69
2023/08/20 00:40:57;;;;;;;11.82;2.70;;;;;;;;;;5026950;28;20022;-69
2023/08/20 00:43:22;;;;;;;9.48;3.00;;;;;;;;;;5025889;28;20045;-69
2023/08/20 00:45:48;;;;;;;9.65;3.85;;;;;;;;;;5026192;28;20060;-69
2023/08/20 00:48:14;;;;;;;6.60;3.33;;;;;;;;;;5034159;28;20036;-69
2023/08/20 00:50:40;;;;;;;8.63;3.10;;;;;;;;;;5044833;28;20032;-69
2023/08/20 00:53:07;;;;;;;10.00;3.00;;;;;;;;;;5046563;28;20017;-69
2023/08/20 00:55:33;;;;;;;10.13;3.03;;;;;;;;;;5047091;28;20037;-69
2023/08/20 00:57:58;;;;;;;8.30;3.17;;;;;;;;;;5046526;28;20041;-69
2023/08/20 01:00:24;;;;;;;9.35;3.20;;;;;;;;;;5046161;28;20032;-69
2023/08/20 01:02:49;;;;;;;7.22;2.90;;;;;;;;;;5033201;28;20033;-69
2023/08/20 01:05:16;;;;;;;6.22;3.17;;;;;;;;;;5046796;28;20031;-69
2023/08/20 01:07:52;;;;;;;7.93;3.33;;;;;;;;;;5025460;28;20041;-69
2023/08/20 01:10:30;;;;;;;13.30;3.13;;;;;;;;;;5025080;28;20041;-69
2023/08/20 01:12:56;;;;;;;12.82;3.03;;;;;;;;;;5030266;28;20040;-69
2023/08/20 01:15:21;;;;;;;11.85;3.40;;;;;;;;;;5049403;28;20044;-69
2023/08/20 01:17:48;;;;;;;8.10;3.03;;;;;;;;;;5033018;28;20044;-69
2023/08/20 01:20:15;;;;;;;7.13;2.92;;;;;;;;;;5051162;28;20025;-69
2023/08/20 01:22:44;;;;;;;7.10;3.30;;;;;;;;;;5057029;28;20040;-69
2023/08/20 01:25:32;;;;;;;7.10;3.00;;;;;;;;;;5042319;28;20514;-69
2023/08/20 01:28:16;;;;;;;10.43;3.15;;;;;;;;;;5041862;28;20032;-69
2023/08/20 01:30:43;;;;;;;8.20;3.08;;;;;;;;;;5050888;28;20045;-69
2023/08/20 01:33:11;;;;;;;5.40;3.13;;;;;;;;;;5047031;28;20036;-69
2023/08/20 01:35:36;;;;;;;8.90;3.33;;;;;;;;;;5048621;28;20032;-68
2023/08/20 01:38:02;;;;;;;9.73;3.83;;;;;;;;;;5023040;28;20040;-69
2023/08/20 01:40:28;;;;;;;9.52;4.05;;;;;;;;;;5027951;28;20523;-69
2023/08/20 01:42:53;;;;;;;8.18;3.53;;;;;;;;;;5026310;28;20056;-69
2023/08/20 01:45:18;;;;;;;8.82;3.60;;;;;;;;;;5026082;28;20033;-69
2023/08/20 01:47:44;;;;;;;9.98;3.35;;;;;;;;;;5032820;28;20029;-69
2023/08/20 01:50:10;;;;;;;11.13;3.83;;;;;;;;;;5059765;28;20090;-69
2023/08/20 01:52:35;;;;;;;8.25;4.00;;;;;;;;;;5063333;28;20040;-69
2023/08/20 01:55:00;;;;;;;7.32;3.33;;;;;;;;;;5057282;28;20033;-69
2023/08/20 01:57:26;;;;;;;6.32;3.15;;;;;;;;;;5049624;28;20694;-69
2023/08/20 01:59:51;;;;;;;11.30;3.95;;;;;;;;;;5036840;28;20121;-69
2023/08/20 02:02:16;;;;;;;7.53;3.10;;;;;;;;;;5048536;28;20031;-69
2023/08/20 02:04:42;;;;;;;7.70;3.45;;;;;;;;;;5049695;28;20047;-69
2023/08/20 02:07:07;;;;;;;6.20;3.05;;;;;;;;;;5048931;28;20046;-69
2023/08/20 02:09:32;;;;;;;10.73;3.60;;;;;;;;;;5047731;28;20510;-69
2023/08/20 02:11:58;;;;;;;6.60;3.42;;;;;;;;;;5048783;28;20052;-68
2023/08/20 02:14:23;;;;;;;8.05;3.20;;;;;;;;;;5049002;28;20555;-68
2023/08/20 02:16:48;;;;;;;7.43;3.38;;;;;;;;;;5048086;28;20013;-69
2023/08/20 02:19:14;;;;;;;9.88;3.63;;;;;;;;;;5049190;28;20064;-69
2023/08/20 02:21:40;;;;;;;8.15;3.53;;;;;;;;;;5049726;28;20060;-69
2023/08/20 02:24:06;;;;;;;9.10;3.60;;;;;;;;;;5049161;28;20037;-69
2023/08/20 02:26:31;;;;;;;8.50;3.42;;;;;;;;;;5047801;28;20032;-69
2023/08/20 02:28:57;;;;;;;8.88;3.60;;;;;;;;;;5061867;28;20111;-68
2023/08/20 02:31:22;;;;;;;8.73;3.10;;;;;;;;;;5047694;28;20114;-69
2023/08/20 02:33:47;;;;;;;8.23;3.58;;;;;;;;;;5049836;28;20037;-69
2023/08/20 02:36:13;;;;;;;10.00;3.60;;;;;;;;;;5047800;28;20033;-69
2023/08/20 02:38:38;;;;;;;10.30;3.75;;;;;;;;;;5048665;28;20109;-69
2023/08/20 02:41:04;;;;;;;13.52;4.00;;;;;;;;;;5049746;28;20033;-69
2023/08/20 02:43:29;;;;;;;8.73;4.10;;;;;;;;;;5048864;28;20033;-69
2023/08/20 02:45:55;;;;;;;9.00;3.65;;;;;;;;;;5048524;28;20033;-69
2023/08/20 02:48:20;;;;;;;13.45;6.07;;;;;;;;;;5045890;28;20489;-69
2023/08/20 02:50:46;;;;;;;12.98;4.75;;;;;;;;;;5049131;28;20036;-69
2023/08/20 02:53:11;;;;;;;14.52;4.78;;;;;;;;;;5049902;28;20037;-69
2023/08/20 02:55:37;;;;;;;13.15;4.00;;;;;;;;;;5049187;28;20803;-69
2023/08/20 02:58:07;;;;;;;7.15;3.70;;;;;;;;;;5062064;28;20044;-69
2023/08/20 03:00:33;;;;;;;9.57;4.15;;;;;;;;;;5049671;28;20037;-69
2023/08/20 03:02:58;;;;;;;9.43;4.15;;;;;;;;;;5051766;28;20041;-69
2023/08/20 03:05:23;;;;;;;12.90;4.18;;;;;;;;;;5052149;28;20026;-68
2023/08/20 03:07:49;;;;;;;8.50;4.22;;;;;;;;;;5058329;28;20017;-69
2023/08/20 03:10:14;;;;;;;8.98;4.25;;;;;;;;;;5049753;28;20029;-69
2023/08/20 03:12:40;;;;;;;11.88;4.20;;;;;;;;;;5049309;28;20430;-69
2023/08/20 03:15:06;;;;;;;6.55;3.60;;;;;;;;;;5047992;28;20059;-69
2023/08/20 03:17:32;;;;;;;11.02;3.95;;;;;;;;;;5049025;28;20071;-69
2023/08/20 03:19:58;;;;;;;7.35;3.25;;;;;;;;;;5049020;28;20032;-69
2023/08/20 03:22:25;;;;;;;7.90;3.50;;;;;;;;;;5046405;28;20102;-69
2023/08/20 03:24:50;;;;;;;10.05;3.53;;;;;;;;;;5048785;28;20469;-69
2023/08/20 03:27:17;;;;;;;8.70;3.00;;;;;;;;;;5048106;28;20163;-69
2023/08/20 03:29:42;;;;;;;9.68;3.38;;;;;;;;;;5040414;28;20049;-69
2023/08/20 03:32:07;;;;;;;10.38;3.50;;;;;;;;;;5042466;28;20434;-69
2023/08/20 03:34:33;;;;;;;7.32;3.10;;;;;;;;;;5048293;28;20590;-69
2023/08/20 03:36:58;;;;;;;10.15;3.42;;;;;;;;;;5047476;28;20044;-69
2023/08/20 03:39:24;;;;;;;6.50;3.25;;;;;;;;;;5038178;28;20442;-69
2023/08/20 03:41:53;;;;;;;9.52;3.20;;;;;;;;;;5022995;28;20482;-69
2023/08/20 03:44:18;;;;;;;5.70;3.20;;;;;;;;;;5037362;28;20029;-69
2023/08/20 03:46:44;;;;;;;9.98;3.92;;;;;;;;;;5034518;28;20040;-69
2023/08/20 03:49:10;;;;;;;7.55;3.90;;;;;;;;;;5038411;28;20045;-69
2023/08/20 03:51:35;;;;;;;6.50;3.80;;;;;;;;;;5041670;28;20047;-69
2023/08/20 03:54:00;;;;;;;12.50;3.60;;;;;;;;;;5026192;28;20498;-69
2023/08/20 03:56:26;;;;;;;10.77;3.42;;;;;;;;;;5026062;28;20121;-68
2023/08/20 03:58:52;;;;;;;6.65;3.03;;;;;;;;;;5027934;28;20037;-69
2023/08/20 04:01:18;;;;;;;6.57;3.28;;;;;;;;;;5027126;28;20110;-69
2023/08/20 04:03:45;;;;;;;9.77;3.97;;;;;;;;;;5028159;28;20507;-69
2023/08/20 04:06:11;;;;;;;12.68;4.30;;;;;;;;;;5027807;28;20037;-69
2023/08/20 04:08:36;;;;;;;7.65;3.33;;;;;;;;;;5023983;28;20626;-69
2023/08/20 04:11:03;;;;;;;6.55;3.35;;;;;;;;;;5028283;28;20033;-69
2023/08/20 04:13:28;;;;;;;10.25;3.45;;;;;;;;;;5044787;28;20044;-69
2023/08/20 04:15:54;;;;;;;6.35;3.67;;;;;;;;;;5046869;28;20631;-69
2023/08/20 04:18:19;;;;;;;7.68;3.30;;;;;;;;;;5053119;28;20044;-69
2023/08/20 04:20:44;;;;;;;11.57;3.58;;;;;;;;;;5029045;28;20044;-69
2023/08/20 04:23:10;;;;;;;7.05;3.08;;;;;;;;;;5047931;28;20025;-69
2023/08/20 04:25:35;;;;;;;8.55;3.72;;;;;;;;;;5024583;28;20101;-69
2023/08/20 04:28:00;;;;;;;6.70;4.03;;;;;;;;;;5045314;28;20029;-69
2023/08/20 04:30:26;;;;;;;8.10;3.60;;;;;;;;;;5034770;28;20049;-69
2023/08/20 04:32:51;;;;;;;10.93;3.80;;;;;;;;;;5054357;28;20033;-69
2023/08/20 04:35:17;;;;;;;9.77;3.30;;;;;;;;;;5044066;28;20045;-69
2023/08/20 04:37:42;;;;;;;11.23;3.63;;;;;;;;;;5039415;28;20037;-69
2023/08/20 04:40:08;;;;;;;7.75;3.50;;;;;;;;;;5013752;28;20577;-68
2023/08/20 04:42:33;;;;;;;8.10;3.92;;;;;;;;;;5022393;28;20048;-69
2023/08/20 04:44:59;;;;;;;9.15;3.80;;;;;;;;;;5038332;28;20522;-69
2023/08/20 04:47:24;;;;;;;9.85;3.35;;;;;;;;;;5023239;28;20029;-69
2023/08/20 04:49:50;;;;;;;9.40;3.45;;;;;;;;;;5014520;28;20026;-69
2023/08/20 04:52:15;;;;;;;9.68;3.75;;;;;;;;;;5018852;28;20044;-69
2023/08/20 04:54:40;;;;;;;8.68;3.28;;;;;;;;;;5020174;28;20168;-69
2023/08/20 04:57:06;;;;;;;8.90;3.38;;;;;;;;;;5017349;28;20064;-68
2023/08/20 04:59:31;;;;;;;8.07;3.40;;;;;;;;;;5007887;28;20041;-69
2023/08/20 05:01:56;;;;;;;8.57;3.58;;;;;;;;;;5019450;28;20446;-69
2023/08/20 05:04:22;;;;;;;7.95;3.72;;;;;;;;;;5029705;28;20036;-69
2023/08/20 05:06:48;;;;;;;7.03;2.97;;;;;;;;;;5017026;28;20735;-69
2023/08/20 05:09:13;;;;;;;9.00;2.95;;;;;;;;;;5026787;28;20041;-69
2023/08/20 05:11:39;;;;;;;13.02;3.60;;;;;;;;;;5026154;28;20406;-69
2023/08/20 05:14:04;;;;;;;9.65;3.40;;;;;;;;;;5024646;28;20079;-69
2023/08/20 05:16:29;;;;;;;6.70;3.80;;;;;;;;;;5044494;28;20040;-69
2023/08/20 05:18:55;;;;;;;6.82;3.28;;;;;;;;;;5039272;28;20503;-69
2023/08/20 05:21:20;;;;;;;8.38;3.85;;;;;;;;;;5039653;28;20029;-69
2023/08/20 05:23:45;;;;;;;9.50;4.00;;;;;;;;;;5033166;28;20048;-69
2023/08/20 05:26:11;;;;;;;10.25;4.35;;;;;;;;;;5032898;28;20025;-69
2023/08/20 05:28:36;;;;;;;13.50;4.50;;;;;;;;;;5032590;28;20029;-69
2023/08/20 05:31:02;;;;;;;10.60;3.75;;;;;;;;;;5038485;28;20132;-69
2023/08/20 05:33:27;;;;;;;8.75;4.20;;;;;;;;;;5038339;28;20036;-69
2023/08/20 05:35:52;;;;;;;9.05;3.47;;;;;;;;;;5032447;28;20178;-69
2023/08/20 05:38:18;;;;;;;9.48;3.63;;;;;;;;;;5034041;28;20091;-69
2023/08/20 05:40:44;;;;;;;9.60;3.58;;;;;;;;;;5026380;28;20044;-69
2023/08/20 05:43:09;;;;;;;16.33;4.22;;;;;;;;;;5040529;28;20029;-69
2023/08/20 05:45:35;;;;;;;10.00;4.15;;;;;;;;;;5043696;28;20029;-69
2023/08/20 05:48:00;;;;;;;7.40;3.75;;;;;;;;;;5046548;28;20545;-69
2023/08/20 05:50:26;;;;;;;8.57;3.55;;;;;;;;;;5045287;28;20019;-69
2023/08/20 05:52:52;;;;;;;9.63;3.83;;;;;;;;;;5046611;28;20068;-69
2023/08/20 05:55:17;;;;;;;10.63;4.35;;;;;;;;;;5046352;28;20068;-69
2023/08/20 05:57:43;;;;;;;9.18;3.47;;;;;;;;;;5043424;28;20525;-69
2023/08/20 06:00:10;;;;;;;9.48;3.53;;;;;;;;;;5041740;28;20033;-68
2023/08/20 06:02:35;;;;;;;9.02;3.88;;;;;;;;;;5055934;28;20078;-69
2023/08/20 06:05:01;;;;;;;13.50;4.20;;;;;;;;;;5048174;28;20025;-69
2023/08/20 06:07:26;;;;;;;7.72;3.75;;;;;;;;;;5046081;28;20072;-69
2023/08/20 06:09:52;;;;;;;7.60;3.50;;;;;;;;;;5046108;28;20033;-69
2023/08/20 06:12:17;;;;;;;10.23;3.90;;;;;;;;;;5045782;28;20044;-69
2023/08/20 06:14:43;;;;;;;10.10;4.10;;;;;;;;;;5046100;28;20134;-70
2023/08/20 06:17:08;;;;;;;8.45;3.97;;;;;;;;;;5046036;28;20054;-71
2023/08/20 06:19:34;;;;;;;12.95;4.40;;;;;;;;;;5043987;28;20041;-71
2023/08/20 06:21:59;;;;;;;10.13;3.92;;;;;;;;;;5045653;28;20041;-71
2023/08/20 06:24:25;;;;;;;16.20;3.70;;;;;;;;;;5045774;28;20037;-71
2023/08/20 06:26:52;;;;;;;7.10;3.78;;;;;;;;;;5046007;28;20055;-70
2023/08/20 06:29:17;;;;;;;11.25;4.32;;;;;;;;;;5044528;28;20075;-70
2023/08/20 06:31:43;;;;;;;6.75;3.80;;;;;;;;;;5045427;28;20502;-70
2023/08/20 06:34:08;;;;;;;8.98;4.40;;;;;;;;;;5049410;28;20033;-69
2023/08/20 06:36:33;;;;;;;8.00;4.22;;;;;;;;;;5047268;28;20671;-70
2023/08/20 06:38:59;;;;;;;10.57;4.13;;;;;;;;;;5048690;28;20041;-70
2023/08/20 06:41:24;;;;;;;12.60;4.18;;;;;;;;;;5049167;28;20454;-69
2023/08/20 06:43:50;;;;;;;8.07;4.10;;;;;;;;;;5040680;28;20025;-69
2023/08/20 06:46:15;;;;;;;12.43;4.28;;;;;;;;;;5043790;28;20059;-70
2023/08/20 06:48:40;;;;;;;11.40;4.38;;;;;;;;;;5049007;28;20040;-70
2023/08/20 06:51:13;;;;;;;9.27;4.25;;;;;;;;;;5048741;28;20529;-70
2023/08/20 06:53:40;;;;;;;13.10;4.03;;;;;;;;;;5048464;28;20021;-69
2023/08/20 06:56:09;;;;;;;11.20;4.60;;;;;;;;;;5046864;28;20035;-70
2023/08/20 06:58:35;;;;;;;13.18;4.03;;;;;;;;;;5036929;28;20083;-70
2023/08/20 07:01:07;;;;;;;6.53;3.67;;;;;;;;;;5045485;28;20083;-70
2023/08/20 07:03:42;;;;;;;7.40;3.15;;;;;;;;;;5048745;28;20037;-70
2023/08/20 07:06:14;;;;;;;12.27;3.10;;;;;;;;;;5035419;28;20143;-70
2023/08/20 07:08:40;;;;;;;9.82;3.83;;;;;;;;;;5047571;28;20039;-69
2023/08/20 07:11:06;;;;;;;8.15;3.85;;;;;;;;;;5047025;28;20116;-70
2023/08/20 07:13:31;;;;;;;11.15;3.50;;;;;;;;;;5039478;28;20136;-70
2023/08/20 07:15:56;;;;;;;10.88;3.70;;;;;;;;;;5047380;28;20131;-70
2023/08/20 07:18:22;;;;;;;8.93;3.65;;;;;;;;;;5047917;28;20045;-70
2023/08/20 07:20:48;;;;;;;17.25;4.43;;;;;;;;;;5048945;28;20121;-70
2023/08/20 07:23:13;;;;;;;9.80;2.72;;;;;;;;;;5033805;28;20120;-70
2023/08/20 07:25:41;;;;;;;8.75;2.63;;;;;;;;;;5048345;28;20040;-70
2023/08/20 07:28:08;;;;;;;5.45;2.10;;;;;;;;;;5063458;28;20051;-70
2023/08/20 07:30:34;;;;;;;5.15;2.22;;;;;;;;;;5062984;28;20067;-70
2023/08/20 07:32:59;;;;;;;4.65;1.80;;;;;;;;;;5046161;28;20041;-70
2023/08/20 07:35:25;;;;;;;5.35;1.80;;;;;;;;;;5047861;28;20036;-69
2023/08/20 07:37:50;;;;;;;2.78;1.60;;;;;;;;;;5047962;28;20021;-70
2023/08/20 07:40:16;;;;;;;4.95;1.65;;;;;;;;;;5047908;28;20037;-70
2023/08/20 07:42:41;;;;;;;4.88;1.70;;;;;;;;;;5047805;28;20029;-70
2023/08/20 07:45:07;;;;;;;6.47;1.77;;;;;;;;;;5044626;28;20514;-70
2023/08/20 07:47:33;;;;;;;6.05;1.40;;;;;;;;;;5044600;28;20021;-70
2023/08/20 07:49:59;;;;;;;1.83;1.00;;;;;;;;;;5046337;28;20407;-69
2023/08/20 07:52:25;;;;;;;1.98;1.02;;;;;;;;;;5047113;28;20510;-70
2023/08/20 07:54:50;;;;;;;4.13;1.30;;;;;;;;;;5048227;28;20405;-70
2023/08/20 07:57:16;;;;;;;5.22;1.33;;;;;;;;;;5056476;28;20036;-69
2023/08/20 07:59:41;;;;;;;5.25;1.20;;;;;;;;;;5039411;28;20123;-70
2023/08/20 08:02:06;;;;;;;4.78;1.17;;;;;;;;;;5048355;28;20024;-70
2023/08/20 08:04:33;;;;;;;10.27;2.10;;;;;;;;;;5046940;28;20465;-70
2023/08/20 08:06:58;;;;;;;3.58;1.80;;;;;;;;;;5042058;28;20731;-69
2023/08/20 08:09:29;;;;;;;2.63;1.33;;;;;;;;;;5045553;28;20037;-69
2023/08/20 08:11:54;;;;;;;4.28;1.50;;;;;;;;;;5041438;28;20041;-70
2023/08/20 08:14:20;;;;;;;5.05;1.42;;;;;;;;;;5042377;28;20405;-70
2023/08/20 08:16:46;;;;;;;6.03;1.50;;;;;;;;;;5046787;28;20037;-70
2023/08/20 08:19:11;;;;;;;5.07;1.75;;;;;;;;;;5047159;28;20088;-70
2023/08/20 08:21:37;;;;;;;4.25;1.25;;;;;;;;;;5047272;28;20090;-70
2023/08/20 08:24:02;;;;;;;5.15;1.70;;;;;;;;;;5046876;28;20044;-70
2023/08/20 08:26:28;;;;;;;4.03;1.60;;;;;;;;;;5044033;28;20033;-69
2023/08/20 08:28:54;;;;;;;8.43;1.75;;;;;;;;;;5046816;28;20017;-69
2023/08/20 08:31:19;;;;;;;4.88;1.67;;;;;;;;;;5045534;28;20048;-70
2023/08/20 08:33:44;;;;;;;2.85;1.50;;;;;;;;;;5047002;28;20091;-70
2023/08/20 08:36:11;;;;;;;2.55;1.30;;;;;;;;;;5046342;28;20032;-70
2023/08/20 08:38:36;;;;;;;7.72;1.65;;;;;;;;;;5045687;28;20145;-70
2023/08/20 08:41:03;;;;;;;6.43;1.95;;;;;;;;;;5042644;28;20431;-70
2023/08/20 08:43:31;;;;;;;3.90;1.25;;;;;;;;;;5045781;28;20037;-70
2023/08/20 08:45:57;;;;;;;6.03;1.20;;;;;;;;;;5046226;28;20518;-70
2023/08/20 08:48:24;;;;;;;2.90;1.10;;;;;;;;;;5033989;28;20083;-70
2023/08/20 08:50:51;;;;;;;5.03;1.48;;;;;;;;;;5047148;28;20032;-71
2023/08/20 08:53:17;;;;;;;5.25;1.30;;;;;;;;;;5047151;28;20074;-69
2023/08/20 08:55:42;;;;;;;1.75;1.05;;;;;;;;;;5050151;28;20876;-69
2023/08/20 08:58:07;;;;;;;4.85;1.70;;;;;;;;;;5064618;28;20581;-68
2023/08/20 09:00:33;;;;;;;2.08;1.05;;;;;;;;;;5045271;28;20047;-69
2023/08/20 09:02:59;;;;;;;1.70;0.80;;;;;;;;;;5046473;28;20032;-68
2023/08/20 09:05:24;;;;;;;3.20;1.02;;;;;;;;;;5041794;28;20545;-67
2023/08/20 09:07:56;;;;;;;2.85;1.05;;;;;;;;;;5044314;28;20116;-68
2023/08/20 09:10:22;;;;;;;2.33;1.27;;;;;;;;;;5040750;28;20996;-68
2023/08/20 09:12:47;;;;;;;4.20;1.98;;;;;;;;;;5046200;28;20550;-69
2023/08/20 09:15:13;;;;;;;3.80;1.60;;;;;;;;;;5044326;28;20052;-69
2023/08/20 09:17:41;;;;;;;4.30;1.60;;;;;;;;;;5045784;28;20021;-67
2023/08/20 09:20:07;;;;;;;6.88;2.65;;;;;;;;;;5044285;28;20405;-69
2023/08/20 09:22:37;;;;;;;5.55;1.77;;;;;;;;;;5046379;28;20040;-68
2023/08/20 09:25:03;;;;;;;3.83;1.70;;;;;;;;;;5044824;28;20047;-69
2023/08/20 09:27:28;;;;;;;3.88;1.77;;;;;;;;;;5048620;28;20041;-69
2023/08/20 09:29:57;;;;;;;4.90;1.48;;;;;;;;;;5047428;28;20048;-69
2023/08/20 09:32:24;;;;;;;4.03;1.70;;;;;;;;;;5043775;28;20067;-69
2023/08/20 09:34:51;;;;;;;6.07;1.40;;;;;;;;;;5046570;28;20047;-70
2023/08/20 09:37:21;;;;;;;3.20;1.45;;;;;;;;;;5044946;28;20612;-69
2023/08/20 09:39:47;;;;;;;4.30;1.75;;;;;;;;;;5044876;28;20155;-69
2023/08/20 09:42:13;;;;;;;5.13;1.35;;;;;;;;;;5045132;28;20029;-69
2023/08/20 09:44:41;;;;;;;3.90;1.83;;;;;;;;;;5045563;28;20379;-68
2023/08/20 09:47:07;;;;;;;5.75;1.63;;;;;;;;;;5045835;28;20082;-68
2023/08/20 09:49:38;;;;;;;4.88;1.60;;;;;;;;;;5044479;28;20029;-68
2023/08/20 09:52:08;;;;;;;3.88;1.65;;;;;;;;;;5045562;28;20036;-68
2023/08/20 09:55:08;;;;;;;3.63;1.50;;;;;;;;;;5045812;28;20056;-68
2023/08/20 09:57:35;;;;;;;3.05;1.60;;;;;;;;;;5057022;28;20056;-69
2023/08/20 10:00:03;;;;;;;3.55;1.80;;;;;;;;;;5045369;28;20037;-69
2023/08/20 10:02:29;;;;;;;4.20;1.60;;;;;;;;;;5045145;28;20041;-68
2023/08/20 10:04:55;;;;;;;5.10;1.77;;;;;;;;;;5044855;28;20028;-68
2023/08/20 10:07:21;;;;;;;3.28;1.45;;;;;;;;;;5045930;28;20033;-68
2023/08/20 10:09:50;;;;;;;3.25;1.58;;;;;;;;;;5049622;28;20044;-68
2023/08/20 10:12:15;;;;;;;8.07;1.70;;;;;;;;;;5049100;28;20041;-68
2023/08/20 10:14:41;;;;;;;3.50;1.73;;;;;;;;;;5050021;28;20095;-69
2023/08/20 10:17:11;;;;;;;10.32;2.38;;;;;;;;;;5050466;28;20461;-68
2023/08/20 10:19:37;;;;;;;3.67;1.75;;;;;;;;;;5048816;28;20037;-67
2023/08/20 10:22:04;;;;;;;11.70;1.92;;;;;;;;;;5053041;28;20123;-67
2023/08/20 10:24:41;;;;;;;5.05;1.90;;;;;;;;;;5054836;28;20407;-68
2023/08/20 10:27:10;;;;;;;3.88;1.75;;;;;;;;;;5035898;28;20542;-68
2023/08/20 10:29:39;;;;;;;2.88;1.88;;;;;;;;;;5042480;28;20017;-68
2023/08/20 10:32:10;;;;;;;4.35;1.70;;;;;;;;;;5042944;28;20883;-68
2023/08/20 10:34:38;;;;;;;2.63;1.73;;;;;;;;;;5041423;28;20045;-68
2023/08/20 10:37:13;;;;;;;3.72;1.80;;;;;;;;;;5042043;28;20056;-68
2023/08/20 10:39:39;;;;;;;3.00;1.60;;;;;;;;;;5026855;28;20057;-68
2023/08/20 10:42:19;;;;;;;3.30;1.50;;;;;;;;;;5014601;28;20048;-67
2023/08/20 10:45:05;;;;;;;2.72;1.52;;;;;;;;;;5045534;28;20120;-68
2023/08/20 10:47:48;;;;;;;4.18;1.60;;;;;;;;;;5030132;28;20029;-67
2023/08/20 10:50:18;;;;;;;3.38;1.50;;;;;;;;;;5048693;28;20033;-67
2023/08/20 10:52:55;;;;;;;4.47;1.63;;;;;;;;;;5046171;28;20041;-67
2023/08/20 10:55:24;;;;;;;2.67;1.60;;;;;;;;;;5046090;28;20685;-68
2023/08/20 10:57:57;;;;;;;4.18;1.65;;;;;;;;;;5049337;28;20577;-68
2023/08/20 11:00:22;;;;;;;;;;;;;;;;;;5037154;28;20137;-68
2023/08/20 11:02:49;;;;;;;4.80;1.90;;;;;;;;;;5047837;28;20009;-68
2023/08/20 11:05:19;;;;;;;4.88;1.60;;;;;;;;;;5036727;28;20025;-68
2023/08/20 11:07:48;;;;;;;2.33;1.40;;;;;;;;;;5034430;28;20045;-68
2023/08/20 11:10:16;;;;;;;4.15;1.60;;;;;;;;;;5034200;28;20034;-68
2023/08/20 11:12:50;;;;;;;5.20;1.70;;;;;;;;;;5042966;28;20037;-68
2023/08/20 11:15:15;;;;;;;2.38;1.70;;;;;;;;;;5030139;28;20045;-68
2023/08/20 11:17:50;;;;;;;4.70;1.92;;;;;;;;;;5016884;28;20033;-68
2023/08/20 11:20:15;;;;;;;4.75;1.75;;;;;;;;;;5014804;28;20649;-68
2023/08/20 11:22:41;;;;;;;2.05;1.52;;;;;;;;;;5017897;28;20510;-68
2023/08/20 11:25:15;;;;;;;3.03;1.60;;;;;;;;;;5023060;28;20526;-68
2023/08/20 11:27:43;;;;;;;5.47;1.50;;;;;;;;;;5036563;28;20633;-68
2023/08/20 11:30:12;;;;;;;2.42;1.40;;;;;;;;;;5041975;28;20421;-68
2023/08/20 11:32:37;;;;;;;5.13;1.80;;;;;;;;;;5045415;28;20013;-67
2023/08/20 11:35:04;;;;;;;3.90;1.65;;;;;;;;;;5048203;28;20387;-68
2023/08/20 11:37:29;;;;;;;2.40;1.42;;;;;;;;;;5047191;28;20033;-68
2023/08/20 11:39:55;;;;;;;6.18;2.03;;;;;;;;;;5047931;28;20040;-68
2023/08/20 11:42:20;;;;;;;5.68;1.88;;;;;;;;;;5046967;28;20048;-67
2023/08/20 11:44:46;;;;;;;4.35;1.80;;;;;;;;;;5059161;28;20064;-67
2023/08/20 11:47:16;;;;;;;6.18;1.73;;;;;;;;;;5046994;28;20068;-67
2023/08/20 11:49:42;;;;;;;3.35;1.67;;;;;;;;;;5047475;28;20032;-68
2023/08/20 11:52:07;;;;;;;3.90;1.90;;;;;;;;;;5040816;28;20051;-68
2023/08/20 11:54:33;;;;;;;2.75;1.60;;;;;;;;;;5045690;28;20036;-68
2023/08/20 11:57:03;;;;;;;5.15;2.00;;;;;;;;;;5058479;28;20044;-68
2023/08/20 11:59:29;;;;;;;3.75;1.95;;;;;;;;;;5044321;28;20033;-67
2023/08/20 12:01:57;;;;;;;3.83;1.75;;;;;;;;;;5039847;28;20028;-68
2023/08/20 12:04:28;;;;;;;5.03;1.98;;;;;;;;;;5046989;28;20045;-68
2023/08/20 12:07:13;;;;;;;4.03;1.42;;;;;;;;;;5046673;28;20048;-68
2023/08/20 12:09:38;;;;;;;4.13;1.60;;;;;;;;;;5047228;28;20049;-68
2023/08/20 12:12:06;;;;;;;4.65;1.88;;;;;;;;;;5046841;28;20721;-68
2023/08/20 12:14:32;;;;;;;3.22;1.50;;;;;;;;;;5047395;28;20050;-68
2023/08/20 12:16:58;;;;;;;4.22;1.73;;;;;;;;;;5047463;28;20494;-68
2023/08/20 12:19:24;;;;;;;5.43;1.60;;;;;;;;;;5044531;28;20041;-67
2023/08/20 12:21:50;;;;;;;6.45;1.70;;;;;;;;;;5044956;28;20037;-68
2023/08/20 12:24:16;;;;;;;3.75;1.77;;;;;;;;;;5045669;28;20043;-68
2023/08/20 12:26:41;;;;;;;3.78;2.10;;;;;;;;;;5045449;28;20830;-68
2023/08/20 12:29:07;;;;;;;5.38;1.80;;;;;;;;;;5059710;28;20020;-68
2023/08/20 12:31:33;;;;;;;5.30;1.73;;;;;;;;;;5044874;28;20045;-68
2023/08/20 12:33:58;;;;;;;4.97;1.70;;;;;;;;;;5046114;28;20045;-68
2023/08/20 12:36:24;;;;;;;5.05;2.20;;;;;;;;;;5045956;28;20390;-68
2023/08/20 12:38:49;;;;;;;2.08;1.60;;;;;;;;;;5043309;28;20048;-68
2023/08/20 12:41:14;;;;;;;3.20;1.40;;;;;;;;;;5046241;28;20047;-68
2023/08/20 12:43:40;;;;;;;3.83;1.75;;;;;;;;;;5046094;28;20060;-68
2023/08/20 12:46:05;;;;;;;4.78;1.90;;;;;;;;;;5044723;28;20449;-68
2023/08/20 12:48:31;;;;;;;3.05;1.70;;;;;;;;;;5043020;28;20123;-68
2023/08/20 12:50:57;;;;;;;5.55;1.60;;;;;;;;;;5044485;28;20033;-68
2023/08/20 12:53:22;;;;;;;3.60;1.80;;;;;;;;;;5043650;28;20514;-69
2023/08/20 12:55:47;;;;;;;3.17;1.60;;;;;;;;;;5044486;28;20041;-69
2023/08/20 12:58:13;;;;;;;4.75;1.90;;;;;;;;;;5039139;28;20482;-69
2023/08/20 13:00:38;;;;;;;4.13;1.70;;;;;;;;;;5040662;28;20245;-69
2023/08/20 13:03:04;;;;;;;3.33;1.60;;;;;;;;;;5046134;28;20040;-69
2023/08/20 13:05:30;;;;;;;3.42;1.60;;;;;;;;;;5045743;28;20028;-68
2023/08/20 13:07:56;;;;;;;4.70;1.95;;;;;;;;;;5042743;28;20020;-68
2023/08/20 13:10:22;;;;;;;4.05;1.65;;;;;;;;;;5046677;28;20131;-68
2023/08/20 13:12:50;;;;;;;6.68;2.00;;;;;;;;;;5046162;28;20051;-68
2023/08/20 13:15:17;;;;;;;3.70;1.65;;;;;;;;;;5049350;28;20041;-68
2023/08/20 13:17:43;;;;;;;3.53;1.85;;;;;;;;;;5053014;28;20052;-68
2023/08/20 13:20:09;;;;;;;3.83;1.58;;;;;;;;;;5046073;28;20037;-68
2023/08/20 13:22:34;;;;;;;8.85;1.73;;;;;;;;;;5044947;28;20036;-68
2023/08/20 13:25:00;;;;;;;7.28;1.90;;;;;;;;;;5045202;28;20056;-68
2023/08/20 13:27:25;;;;;;;3.47;1.73;;;;;;;;;;5045668;28;20764;-68
2023/08/20 13:29:51;;;;;;;3.28;1.60;;;;;;;;;;5042563;28;20037;-68
2023/08/20 13:32:16;;;;;;;6.43;1.90;;;;;;;;;;5045371;28;20036;-68
2023/08/20 13:34:41;;;;;;;5.57;2.10;;;;;;;;;;5045556;28;20037;-68
2023/08/20 13:37:07;;;;;;;7.18;2.22;;;;;;;;;;5045113;28;20114;-69
2023/08/20 13:39:32;;;;;;;5.40;1.70;;;;;;;;;;5045436;28;20045;-69
2023/08/20 13:41:57;;;;;;;3.40;1.70;;;;;;;;;;5047418;28;20051;-67
2023/08/20 13:44:23;;;;;;;3.15;1.90;;;;;;;;;;5049439;28;20124;-67
2023/08/20 13:46:48;;;;;;;5.35;2.33;;;;;;;;;;5047478;28;20029;-68
2023/08/20 13:49:14;;;;;;;3.75;2.00;;;;;;;;;;5049666;28;20029;-68
2023/08/20 13:51:39;;;;;;;3.80;1.80;;;;;;;;;;5048828;28;20112;-68
2023/08/20 13:54:04;;;;;;;5.93;1.83;;;;;;;;;;5049568;28;20033;-68
2023/08/20 13:56:30;;;;;;;6.03;2.00;;;;;;;;;;5052102;28;20032;-68
2023/08/20 13:58:55;;;;;;;3.08;1.80;;;;;;;;;;5049106;28;20027;-68
2023/08/20 14:01:20;;;;;;;4.10;1.65;;;;;;;;;;5038928;28;20045;-68
2023/08/20 14:03:46;;;;;;;3.78;1.80;;;;;;;;;;5036405;28;20110;-68
2023/08/20 14:06:11;;;;;;;3.25;1.85;;;;;;;;;;5045832;28;20040;-68
2023/08/20 14:08:37;;;;;;;4.53;1.55;;;;;;;;;;5048439;28;20734;-68
2023/08/20 14:11:03;;;;;;;5.72;1.80;;;;;;;;;;5048929;28;20094;-68
2023/08/20 14:13:28;;;;;;;4.50;2.13;;;;;;;;;;5039514;28;20029;-68
2023/08/20 14:15:54;;;;;;;2.72;1.80;;;;;;;;;;5032330;28;20143;-68
2023/08/20 14:18:19;;;;;;;4.80;1.98;;;;;;;;;;5028420;28;20045;-68
2023/08/20 14:20:44;;;;;;;3.28;1.80;;;;;;;;;;5046140;28;20418;-68
2023/08/20 14:23:10;;;;;;;5.20;1.90;;;;;;;;;;5043499;28;20528;-68
2023/08/20 14:25:35;;;;;;;3.17;1.75;;;;;;;;;;5046252;28;20132;-68
2023/08/20 14:28:01;;;;;;;3.20;1.90;;;;;;;;;;5051906;28;20535;-68
2023/08/20 14:30:26;;;;;;;2.63;1.80;;;;;;;;;;5051175;28;20110;-68
2023/08/20 14:32:52;;;;;;;4.30;1.85;;;;;;;;;;5047706;28;20029;-68
2023/08/20 14:35:19;;;;;;;4.97;1.88;;;;;;;;;;5047036;28;20021;-68
2023/08/20 14:37:44;;;;;;;3.95;1.80;;;;;;;;;;5045885;28;20044;-68